TAF Text Data
IDs:
Format:
Raw Decoded Include METAR

Data at: 1742 UTC 03 Jul 2020

KDHN 031726Z 0318/0418 26003KT P6SM VCTS SCT040CB BKN050
  TEMPO 0318/0322 VRB15G25KT 4SM TSRA BKN035CB
  FM040000 VRB03KT P6SM BKN100
  FM041700 13006KT P6SM VCTS BKN040CB